sensor_id;sensor_type;location;lat;lon;timestamp;P1;durP1;ratioP1;P2;durP2;ratioP2
20697;SDS011;10508;50.956;4.640;2022-07-29T00:01:35;2.97;;;1.20;;
20697;SDS011;10508;50.956;4.640;2022-07-29T00:04:01;4.70;;;1.50;;
20697;SDS011;10508;50.956;4.640;2022-07-29T00:06:26;3.78;;;1.73;;
20697;SDS011;10508;50.956;4.640;2022-07-29T00:08:52;3.63;;;1.40;;
20697;SDS011;10508;50.956;4.640;2022-07-29T00:11:17;3.55;;;1.63;;
20697;SDS011;10508;50.956;4.640;2022-07-29T00:13:43;4.80;;;1.33;;
20697;SDS011;10508;50.956;4.640;2022-07-29T00:16:09;3.65;;;1.40;;
20697;SDS011;10508;50.956;4.640;2022-07-29T00:18:34;7.50;;;1.42;;
20697;SDS011;10508;50.956;4.640;2022-07-29T00:21:00;3.92;;;1.35;;
20697;SDS011;10508;50.956;4.640;2022-07-29T00:23:25;2.28;;;1.42;;
20697;SDS011;10508;50.956;4.640;2022-07-29T00:25:51;3.15;;;1.60;;
20697;SDS011;10508;50.956;4.640;2022-07-29T00:28:17;2.45;;;1.23;;
20697;SDS011;10508;50.956;4.640;2022-07-29T00:30:42;4.15;;;1.33;;
20697;SDS011;10508;50.956;4.640;2022-07-29T00:33:08;5.22;;;1.45;;
20697;SDS011;10508;50.956;4.640;2022-07-29T00:35:34;5.68;;;1.52;;
20697;SDS011;10508;50.956;4.640;2022-07-29T00:38:13;2.88;;;1.70;;
20697;SDS011;10508;50.956;4.640;2022-07-29T00:40:40;1.15;;;1.00;;
20697;SDS011;10508;50.956;4.640;2022-07-29T00:43:06;1.30;;;1.02;;
20697;SDS011;10508;50.956;4.640;2022-07-29T00:45:32;3.20;;;1.13;;
20697;SDS011;10508;50.956;4.640;2022-07-29T00:47:57;6.00;;;2.25;;
20697;SDS011;10508;50.956;4.640;2022-07-29T00:50:23;3.95;;;1.30;;
20697;SDS011;10508;50.956;4.640;2022-07-29T00:52:49;5.13;;;1.40;;
20697;SDS011;10508;50.956;4.640;2022-07-29T00:55:16;4.65;;;1.63;;
20697;SDS011;10508;50.956;4.640;2022-07-29T00:57:42;4.55;;;1.15;;
20697;SDS011;10508;50.956;4.640;2022-07-29T01:00:09;1.85;;;1.17;;
20697;SDS011;10508;50.956;4.640;2022-07-29T01:02:37;4.93;;;1.40;;
20697;SDS011;10508;50.956;4.640;2022-07-29T01:05:03;7.05;;;1.73;;
20697;SDS011;10508;50.956;4.640;2022-07-29T01:07:30;2.08;;;1.20;;
20697;SDS011;10508;50.956;4.640;2022-07-29T01:09:58;5.07;;;1.50;;
20697;SDS011;10508;50.956;4.640;2022-07-29T01:12:25;1.75;;;1.20;;
20697;SDS011;10508;50.956;4.640;2022-07-29T01:14:54;4.95;;;1.48;;
20697;SDS011;10508;50.956;4.640;2022-07-29T01:17:22;4.32;;;1.33;;
20697;SDS011;10508;50.956;4.640;2022-07-29T01:30:25;3.13;;;1.23;;
20697;SDS011;10508;50.956;4.640;2022-07-29T01:32:54;2.53;;;1.50;;
20697;SDS011;10508;50.956;4.640;2022-07-29T01:35:25;6.30;;;1.52;;
20697;SDS011;10508;50.956;4.640;2022-07-29T01:38:01;4.60;;;1.23;;
20697;SDS011;10508;50.956;4.640;2022-07-29T01:40:38;2.92;;;1.30;;
20697;SDS011;10508;50.956;4.640;2022-07-29T01:43:19;2.70;;;1.35;;
20697;SDS011;10508;50.956;4.640;2022-07-29T01:45:50;3.35;;;1.38;;
20697;SDS011;10508;50.956;4.640;2022-07-29T01:48:23;3.58;;;1.20;;
20697;SDS011;10508;50.956;4.640;2022-07-29T01:50:57;4.30;;;1.60;;
20697;SDS011;10508;50.956;4.640;2022-07-29T01:53:50;6.88;;;0.98;;
20697;SDS011;10508;50.956;4.640;2022-07-29T01:56:21;3.53;;;1.27;;
20697;SDS011;10508;50.956;4.640;2022-07-29T01:58:49;3.13;;;1.20;;
20697;SDS011;10508;50.956;4.640;2022-07-29T02:01:17;2.20;;;1.30;;
20697;SDS011;10508;50.956;4.640;2022-07-29T02:03:44;2.75;;;1.67;;
20697;SDS011;10508;50.956;4.640;2022-07-29T02:06:11;5.15;;;1.35;;
20697;SDS011;10508;50.956;4.640;2022-07-29T02:08:40;2.88;;;1.30;;
20697;SDS011;10508;50.956;4.640;2022-07-29T02:11:07;8.57;;;1.30;;
20697;SDS011;10508;50.956;4.640;2022-07-29T02:13:34;2.70;;;1.10;;
20697;SDS011;10508;50.956;4.640;2022-07-29T02:16:02;12.82;;;2.25;;
20697;SDS011;10508;50.956;4.640;2022-07-29T02:18:30;3.78;;;1.30;;
20697;SDS011;10508;50.956;4.640;2022-07-29T02:20:56;7.65;;;2.47;;
20697;SDS011;10508;50.956;4.640;2022-07-29T02:23:24;4.32;;;1.40;;
20697;SDS011;10508;50.956;4.640;2022-07-29T02:25:51;1.42;;;1.17;;
20697;SDS011;10508;50.956;4.640;2022-07-29T02:28:19;1.20;;;0.90;;
20697;SDS011;10508;50.956;4.640;2022-07-29T02:30:47;1.77;;;1.00;;
20697;SDS011;10508;50.956;4.640;2022-07-29T02:33:15;3.33;;;1.35;;
20697;SDS011;10508;50.956;4.640;2022-07-29T02:35:44;2.78;;;1.15;;
20697;SDS011;10508;50.956;4.640;2022-07-29T02:38:12;9.05;;;1.90;;
20697;SDS011;10508;50.956;4.640;2022-07-29T02:41:00;7.45;;;1.20;;
20697;SDS011;10508;50.956;4.640;2022-07-29T02:43:29;4.75;;;1.30;;
20697;SDS011;10508;50.956;4.640;2022-07-29T02:45:56;6.18;;;1.20;;
20697;SDS011;10508;50.956;4.640;2022-07-29T02:48:27;3.75;;;1.40;;
20697;SDS011;10508;50.956;4.640;2022-07-29T02:51:06;4.65;;;1.90;;
20697;SDS011;10508;50.956;4.640;2022-07-29T02:53:39;7.80;;;1.40;;
20697;SDS011;10508;50.956;4.640;2022-07-29T02:56:10;3.13;;;1.55;;
20697;SDS011;10508;50.956;4.640;2022-07-29T02:58:45;3.95;;;1.80;;
20697;SDS011;10508;50.956;4.640;2022-07-29T03:01:19;4.97;;;1.92;;
20697;SDS011;10508;50.956;4.640;2022-07-29T03:03:47;3.75;;;1.55;;
20697;SDS011;10508;50.956;4.640;2022-07-29T03:06:14;4.43;;;1.80;;
20697;SDS011;10508;50.956;4.640;2022-07-29T03:08:42;2.05;;;1.40;;
20697;SDS011;10508;50.956;4.640;2022-07-29T03:11:09;3.47;;;1.30;;
20697;SDS011;10508;50.956;4.640;2022-07-29T03:13:36;2.33;;;1.05;;
20697;SDS011;10508;50.956;4.640;2022-07-29T03:16:02;5.40;;;1.35;;
20697;SDS011;10508;50.956;4.640;2022-07-29T03:18:29;2.03;;;1.45;;
20697;SDS011;10508;50.956;4.640;2022-07-29T03:20:56;1.88;;;1.20;;
20697;SDS011;10508;50.956;4.640;2022-07-29T03:23:22;3.88;;;1.55;;
20697;SDS011;10508;50.956;4.640;2022-07-29T03:25:49;3.95;;;1.38;;
20697;SDS011;10508;50.956;4.640;2022-07-29T03:28:15;3.67;;;1.80;;
20697;SDS011;10508;50.956;4.640;2022-07-29T03:30:42;1.75;;;1.42;;
20697;SDS011;10508;50.956;4.640;2022-07-29T03:33:07;4.88;;;1.88;;
20697;SDS011;10508;50.956;4.640;2022-07-29T03:35:33;1.90;;;1.50;;
20697;SDS011;10508;50.956;4.640;2022-07-29T03:37:59;2.05;;;1.20;;
20697;SDS011;10508;50.956;4.640;2022-07-29T03:40:35;8.68;;;1.50;;
20697;SDS011;10508;50.956;4.640;2022-07-29T03:43:07;2.50;;;1.33;;
20697;SDS011;10508;50.956;4.640;2022-07-29T03:45:35;2.97;;;1.30;;
20697;SDS011;10508;50.956;4.640;2022-07-29T03:48:05;1.80;;;1.40;;
20697;SDS011;10508;50.956;4.640;2022-07-29T03:50:33;1.90;;;1.08;;
20697;SDS011;10508;50.956;4.640;2022-07-29T03:53:00;2.88;;;1.58;;
20697;SDS011;10508;50.956;4.640;2022-07-29T03:55:26;4.47;;;1.48;;
20697;SDS011;10508;50.956;4.640;2022-07-29T03:57:54;3.05;;;1.48;;
20697;SDS011;10508;50.956;4.640;2022-07-29T04:00:23;2.90;;;1.23;;
20697;SDS011;10508;50.956;4.640;2022-07-29T04:02:50;1.75;;;1.35;;
20697;SDS011;10508;50.956;4.640;2022-07-29T04:05:16;2.17;;;1.30;;
20697;SDS011;10508;50.956;4.640;2022-07-29T04:07:43;2.70;;;1.50;;
20697;SDS011;10508;50.956;4.640;2022-07-29T04:10:13;2.80;;;1.40;;
20697;SDS011;10508;50.956;4.640;2022-07-29T04:12:40;2.28;;;1.23;;
20697;SDS011;10508;50.956;4.640;2022-07-29T04:15:06;3.97;;;1.73;;
20697;SDS011;10508;50.956;4.640;2022-07-29T04:17:32;3.45;;;1.70;;
20697;SDS011;10508;50.956;4.640;2022-07-29T04:19:58;2.63;;;1.25;;
20697;SDS011;10508;50.956;4.640;2022-07-29T04:22:24;3.38;;;1.77;;
20697;SDS011;10508;50.956;4.640;2022-07-29T04:24:49;3.47;;;1.42;;
20697;SDS011;10508;50.956;4.640;2022-07-29T04:27:15;8.50;;;1.58;;
20697;SDS011;10508;50.956;4.640;2022-07-29T04:29:40;4.15;;;1.70;;
20697;SDS011;10508;50.956;4.640;2022-07-29T04:32:06;4.63;;;1.52;;
20697;SDS011;10508;50.956;4.640;2022-07-29T04:34:32;2.38;;;1.17;;
20697;SDS011;10508;50.956;4.640;2022-07-29T04:36:57;3.17;;;1.85;;
20697;SDS011;10508;50.956;4.640;2022-07-29T04:39:23;2.97;;;1.70;;
20697;SDS011;10508;50.956;4.640;2022-07-29T04:41:49;3.95;;;1.55;;
20697;SDS011;10508;50.956;4.640;2022-07-29T04:44:15;12.57;;;1.80;;
20697;SDS011;10508;50.956;4.640;2022-07-29T04:46:41;2.70;;;1.63;;
20697;SDS011;10508;50.956;4.640;2022-07-29T04:49:06;2.85;;;1.63;;
20697;SDS011;10508;50.956;4.640;2022-07-29T04:51:32;3.40;;;1.67;;
20697;SDS011;10508;50.956;4.640;2022-07-29T04:53:58;4.20;;;2.38;;
20697;SDS011;10508;50.956;4.640;2022-07-29T04:56:24;4.50;;;1.63;;
20697;SDS011;10508;50.956;4.640;2022-07-29T04:58:49;3.75;;;1.67;;
20697;SDS011;10508;50.956;4.640;2022-07-29T05:01:15;5.93;;;1.67;;
20697;SDS011;10508;50.956;4.640;2022-07-29T05:03:41;4.20;;;1.67;;
20697;SDS011;10508;50.956;4.640;2022-07-29T05:06:07;7.90;;;2.35;;
20697;SDS011;10508;50.956;4.640;2022-07-29T05:08:32;2.40;;;1.50;;
20697;SDS011;10508;50.956;4.640;2022-07-29T05:10:58;2.53;;;1.65;;
20697;SDS011;10508;50.956;4.640;2022-07-29T05:13:23;3.05;;;1.85;;
20697;SDS011;10508;50.956;4.640;2022-07-29T05:15:49;3.55;;;1.83;;
20697;SDS011;10508;50.956;4.640;2022-07-29T05:18:15;5.15;;;1.95;;
20697;SDS011;10508;50.956;4.640;2022-07-29T05:20:40;4.03;;;1.77;;
20697;SDS011;10508;50.956;4.640;2022-07-29T05:23:06;3.50;;;1.90;;
20697;SDS011;10508;50.956;4.640;2022-07-29T05:25:32;4.43;;;1.80;;
20697;SDS011;10508;50.956;4.640;2022-07-29T05:27:58;3.92;;;1.85;;
20697;SDS011;10508;50.956;4.640;2022-07-29T05:30:24;3.10;;;1.88;;
20697;SDS011;10508;50.956;4.640;2022-07-29T05:32:49;5.60;;;2.20;;
20697;SDS011;10508;50.956;4.640;2022-07-29T05:35:15;4.30;;;1.92;;
20697;SDS011;10508;50.956;4.640;2022-07-29T05:37:40;9.18;;;2.35;;
20697;SDS011;10508;50.956;4.640;2022-07-29T05:40:07;3.53;;;2.10;;
20697;SDS011;10508;50.956;4.640;2022-07-29T05:42:33;7.80;;;1.83;;
20697;SDS011;10508;50.956;4.640;2022-07-29T05:44:59;3.70;;;1.80;;
20697;SDS011;10508;50.956;4.640;2022-07-29T05:47:25;4.82;;;2.38;;
20697;SDS011;10508;50.956;4.640;2022-07-29T05:49:51;4.35;;;1.80;;
20697;SDS011;10508;50.956;4.640;2022-07-29T05:52:17;10.00;;;3.55;;
20697;SDS011;10508;50.956;4.640;2022-07-29T05:54:43;4.72;;;2.45;;
20697;SDS011;10508;50.956;4.640;2022-07-29T05:57:14;4.45;;;2.20;;
20697;SDS011;10508;50.956;4.640;2022-07-29T05:59:44;3.95;;;2.17;;
20697;SDS011;10508;50.956;4.640;2022-07-29T06:02:10;8.57;;;3.00;;
20697;SDS011;10508;50.956;4.640;2022-07-29T06:04:36;4.65;;;2.63;;
20697;SDS011;10508;50.956;4.640;2022-07-29T06:07:02;4.05;;;2.40;;
20697;SDS011;10508;50.956;4.640;2022-07-29T06:09:27;4.50;;;2.38;;
20697;SDS011;10508;50.956;4.640;2022-07-29T06:11:53;6.55;;;2.63;;
20697;SDS011;10508;50.956;4.640;2022-07-29T06:14:19;7.68;;;2.78;;
20697;SDS011;10508;50.956;4.640;2022-07-29T06:16:45;7.43;;;2.95;;
20697;SDS011;10508;50.956;4.640;2022-07-29T06:19:10;4.70;;;2.47;;
20697;SDS011;10508;50.956;4.640;2022-07-29T06:21:36;7.90;;;2.97;;
20697;SDS011;10508;50.956;4.640;2022-07-29T06:24:07;7.38;;;2.67;;
20697;SDS011;10508;50.956;4.640;2022-07-29T06:26:33;3.92;;;2.28;;
20697;SDS011;10508;50.956;4.640;2022-07-29T06:28:58;3.78;;;2.70;;
20697;SDS011;10508;50.956;4.640;2022-07-29T06:31:24;8.88;;;3.22;;
20697;SDS011;10508;50.956;4.640;2022-07-29T06:33:49;5.63;;;2.30;;
20697;SDS011;10508;50.956;4.640;2022-07-29T06:36:15;5.10;;;2.65;;
20697;SDS011;10508;50.956;4.640;2022-07-29T06:38:40;4.38;;;2.50;;
20697;SDS011;10508;50.956;4.640;2022-07-29T06:41:07;6.25;;;2.70;;
20697;SDS011;10508;50.956;4.640;2022-07-29T06:43:38;4.32;;;2.63;;
20697;SDS011;10508;50.956;4.640;2022-07-29T06:46:09;4.43;;;2.38;;
20697;SDS011;10508;50.956;4.640;2022-07-29T06:48:36;4.35;;;2.47;;
20697;SDS011;10508;50.956;4.640;2022-07-29T06:51:03;3.70;;;2.22;;
20697;SDS011;10508;50.956;4.640;2022-07-29T06:53:30;4.30;;;2.33;;
20697;SDS011;10508;50.956;4.640;2022-07-29T06:55:56;5.05;;;2.30;;
20697;SDS011;10508;50.956;4.640;2022-07-29T06:58:23;3.78;;;2.95;;
20697;SDS011;10508;50.956;4.640;2022-07-29T07:00:49;5.30;;;2.40;;
20697;SDS011;10508;50.956;4.640;2022-07-29T07:03:15;3.20;;;2.50;;
20697;SDS011;10508;50.956;4.640;2022-07-29T07:05:42;6.32;;;2.97;;
20697;SDS011;10508;50.956;4.640;2022-07-29T07:08:08;8.73;;;2.33;;
20697;SDS011;10508;50.956;4.640;2022-07-29T07:10:34;4.15;;;2.55;;
20697;SDS011;10508;50.956;4.640;2022-07-29T07:13:00;8.02;;;3.10;;
20697;SDS011;10508;50.956;4.640;2022-07-29T07:15:27;5.85;;;2.95;;
20697;SDS011;10508;50.956;4.640;2022-07-29T07:17:53;3.85;;;2.65;;
20697;SDS011;10508;50.956;4.640;2022-07-29T07:20:18;4.82;;;2.60;;
20697;SDS011;10508;50.956;4.640;2022-07-29T07:22:44;4.95;;;3.10;;
20697;SDS011;10508;50.956;4.640;2022-07-29T07:25:10;4.88;;;2.78;;
20697;SDS011;10508;50.956;4.640;2022-07-29T07:27:36;5.88;;;2.97;;
20697;SDS011;10508;50.956;4.640;2022-07-29T07:30:03;5.25;;;2.83;;
20697;SDS011;10508;50.956;4.640;2022-07-29T07:32:33;7.32;;;2.53;;
20697;SDS011;10508;50.956;4.640;2022-07-29T07:34:59;3.28;;;2.60;;
20697;SDS011;10508;50.956;4.640;2022-07-29T07:37:25;5.03;;;2.80;;
20697;SDS011;10508;50.956;4.640;2022-07-29T07:39:51;5.60;;;2.70;;
20697;SDS011;10508;50.956;4.640;2022-07-29T07:42:17;3.65;;;2.50;;
20697;SDS011;10508;50.956;4.640;2022-07-29T07:44:43;6.75;;;2.45;;
20697;SDS011;10508;50.956;4.640;2022-07-29T07:47:10;6.53;;;2.17;;
20697;SDS011;10508;50.956;4.640;2022-07-29T07:49:37;7.82;;;3.03;;
20697;SDS011;10508;50.956;4.640;2022-07-29T07:52:03;6.88;;;2.22;;
20697;SDS011;10508;50.956;4.640;2022-07-29T07:54:29;3.15;;;2.50;;
20697;SDS011;10508;50.956;4.640;2022-07-29T07:56:55;4.70;;;2.42;;
20697;SDS011;10508;50.956;4.640;2022-07-29T07:59:20;4.55;;;2.20;;
20697;SDS011;10508;50.956;4.640;2022-07-29T08:01:46;5.40;;;2.90;;
20697;SDS011;10508;50.956;4.640;2022-07-29T08:04:12;8.82;;;2.58;;
20697;SDS011;10508;50.956;4.640;2022-07-29T08:06:37;3.08;;;2.47;;
20697;SDS011;10508;50.956;4.640;2022-07-29T08:09:03;6.07;;;2.47;;
20697;SDS011;10508;50.956;4.640;2022-07-29T08:11:30;5.50;;;2.90;;
20697;SDS011;10508;50.956;4.640;2022-07-29T08:13:55;7.78;;;2.55;;
20697;SDS011;10508;50.956;4.640;2022-07-29T08:16:21;5.40;;;2.55;;
20697;SDS011;10508;50.956;4.640;2022-07-29T08:18:47;3.05;;;2.17;;
20697;SDS011;10508;50.956;4.640;2022-07-29T08:21:13;5.20;;;2.60;;
20697;SDS011;10508;50.956;4.640;2022-07-29T08:23:40;2.85;;;2.10;;
20697;SDS011;10508;50.956;4.640;2022-07-29T08:26:15;3.55;;;2.70;;
20697;SDS011;10508;50.956;4.640;2022-07-29T08:28:42;3.97;;;2.30;;
20697;SDS011;10508;50.956;4.640;2022-07-29T08:31:14;6.57;;;2.30;;
20697;SDS011;10508;50.956;4.640;2022-07-29T08:33:41;4.22;;;2.15;;
20697;SDS011;10508;50.956;4.640;2022-07-29T08:36:07;4.80;;;2.35;;
20697;SDS011;10508;50.956;4.640;2022-07-29T08:38:33;5.95;;;1.92;;
20697;SDS011;10508;50.956;4.640;2022-07-29T08:41:02;6.82;;;2.30;;
20697;SDS011;10508;50.956;4.640;2022-07-29T08:43:28;3.65;;;2.20;;
20697;SDS011;10508;50.956;4.640;2022-07-29T08:45:54;6.28;;;1.80;;
20697;SDS011;10508;50.956;4.640;2022-07-29T08:48:22;4.07;;;2.45;;
20697;SDS011;10508;50.956;4.640;2022-07-29T08:50:53;2.67;;;1.60;;
20697;SDS011;10508;50.956;4.640;2022-07-29T08:53:23;3.83;;;2.03;;
20697;SDS011;10508;50.956;4.640;2022-07-29T08:55:51;4.88;;;2.70;;
20697;SDS011;10508;50.956;4.640;2022-07-29T08:58:18;2.80;;;1.80;;
20697;SDS011;10508;50.956;4.640;2022-07-29T09:00:50;2.72;;;1.90;;
20697;SDS011;10508;50.956;4.640;2022-07-29T09:03:18;4.70;;;1.83;;
20697;SDS011;10508;50.956;4.640;2022-07-29T09:05:45;5.63;;;1.90;;
20697;SDS011;10508;50.956;4.640;2022-07-29T09:08:16;4.63;;;1.45;;
20697;SDS011;10508;50.956;4.640;2022-07-29T09:10:42;1.60;;;1.27;;
20697;SDS011;10508;50.956;4.640;2022-07-29T09:13:08;3.78;;;1.70;;
20697;SDS011;10508;50.956;4.640;2022-07-29T09:15:34;6.55;;;1.50;;
20697;SDS011;10508;50.956;4.640;2022-07-29T09:18:00;3.92;;;1.27;;
20697;SDS011;10508;50.956;4.640;2022-07-29T09:20:26;4.90;;;1.77;;
20697;SDS011;10508;50.956;4.640;2022-07-29T09:23:12;4.63;;;1.80;;
20697;SDS011;10508;50.956;4.640;2022-07-29T09:25:40;2.33;;;1.80;;
20697;SDS011;10508;50.956;4.640;2022-07-29T09:30:36;3.45;;;1.70;;
20697;SDS011;10508;50.956;4.640;2022-07-29T09:33:21;2.92;;;1.33;;
20697;SDS011;10508;50.956;4.640;2022-07-29T09:36:06;4.25;;;1.70;;
20697;SDS011;10508;50.956;4.640;2022-07-29T09:38:33;5.05;;;1.88;;
20697;SDS011;10508;50.956;4.640;2022-07-29T09:41:01;3.15;;;1.60;;
20697;SDS011;10508;50.956;4.640;2022-07-29T09:43:28;1.75;;;1.27;;
20697;SDS011;10508;50.956;4.640;2022-07-29T09:45:54;2.35;;;1.58;;
20697;SDS011;10508;50.956;4.640;2022-07-29T09:50:47;4.28;;;1.60;;
20697;SDS011;10508;50.956;4.640;2022-07-29T09:53:35;5.78;;;2.15;;
20697;SDS011;10508;50.956;4.640;2022-07-29T09:56:02;2.55;;;1.63;;
20697;SDS011;10508;50.956;4.640;2022-07-29T09:58:29;3.47;;;1.73;;
20697;SDS011;10508;50.956;4.640;2022-07-29T10:00:55;2.30;;;1.67;;
20697;SDS011;10508;50.956;4.640;2022-07-29T10:03:21;1.65;;;1.15;;
20697;SDS011;10508;50.956;4.640;2022-07-29T10:08:33;6.72;;;2.00;;
20697;SDS011;10508;50.956;4.640;2022-07-29T10:11:12;2.08;;;1.50;;
20697;SDS011;10508;50.956;4.640;2022-07-29T10:13:43;1.88;;;1.63;;
20697;SDS011;10508;50.956;4.640;2022-07-29T10:16:11;2.65;;;1.30;;
20697;SDS011;10508;50.956;4.640;2022-07-29T10:18:39;2.65;;;1.08;;
20697;SDS011;10508;50.956;4.640;2022-07-29T10:21:05;1.67;;;1.20;;
20697;SDS011;10508;50.956;4.640;2022-07-29T10:23:32;2.45;;;1.25;;
20697;SDS011;10508;50.956;4.640;2022-07-29T10:25:58;3.50;;;1.70;;
20697;SDS011;10508;50.956;4.640;2022-07-29T10:28:25;1.80;;;1.35;;
20697;SDS011;10508;50.956;4.640;2022-07-29T10:30:51;4.78;;;1.45;;
20697;SDS011;10508;50.956;4.640;2022-07-29T10:36:12;2.90;;;1.40;;
20697;SDS011;10508;50.956;4.640;2022-07-29T10:38:53;4.45;;;1.10;;
20697;SDS011;10508;50.956;4.640;2022-07-29T10:44:17;2.13;;;1.23;;
20697;SDS011;10508;50.956;4.640;2022-07-29T10:46:44;3.70;;;1.52;;
20697;SDS011;10508;50.956;4.640;2022-07-29T10:54:18;2.90;;;1.45;;
20697;SDS011;10508;50.956;4.640;2022-07-29T11:05:19;1.85;;;1.35;;
20697;SDS011;10508;50.956;4.640;2022-07-29T11:10:51;2.33;;;1.45;;
20697;SDS011;10508;50.956;4.640;2022-07-29T11:16:08;2.58;;;1.40;;
20697;SDS011;10508;50.956;4.640;2022-07-29T11:18:34;2.97;;;1.73;;
20697;SDS011;10508;50.956;4.640;2022-07-29T11:20:59;2.00;;;1.20;;
20697;SDS011;10508;50.956;4.640;2022-07-29T11:23:34;3.92;;;1.20;;
20697;SDS011;10508;50.956;4.640;2022-07-29T11:39:36;4.20;;;1.40;;
20697;SDS011;10508;50.956;4.640;2022-07-29T11:47:26;2.75;;;1.40;;
20697;SDS011;10508;50.956;4.640;2022-07-29T11:50:03;3.08;;;1.30;;
20697;SDS011;10508;50.956;4.640;2022-07-29T11:52:34;22.23;;;2.53;;
20697;SDS011;10508;50.956;4.640;2022-07-29T11:55:15;2.88;;;1.42;;
20697;SDS011;10508;50.956;4.640;2022-07-29T11:57:47;2.42;;;1.45;;
20697;SDS011;10508;50.956;4.640;2022-07-29T12:03:11;2.83;;;1.00;;
20697;SDS011;10508;50.956;4.640;2022-07-29T12:05:43;2.30;;;1.15;;
20697;SDS011;10508;50.956;4.640;2022-07-29T12:08:17;2.33;;;1.35;;
20697;SDS011;10508;50.956;4.640;2022-07-29T12:10:44;1.85;;;1.00;;
20697;SDS011;10508;50.956;4.640;2022-07-29T12:13:12;4.60;;;1.38;;
20697;SDS011;10508;50.956;4.640;2022-07-29T12:15:39;4.93;;;1.73;;
20697;SDS011;10508;50.956;4.640;2022-07-29T12:18:09;11.73;;;2.22;;
20697;SDS011;10508;50.956;4.640;2022-07-29T12:20:39;2.17;;;1.38;;
20697;SDS011;10508;50.956;4.640;2022-07-29T12:23:06;3.20;;;1.50;;
20697;SDS011;10508;50.956;4.640;2022-07-29T12:25:34;2.83;;;1.27;;
20697;SDS011;10508;50.956;4.640;2022-07-29T12:28:14;2.35;;;1.30;;
20697;SDS011;10508;50.956;4.640;2022-07-29T12:30:47;5.35;;;1.20;;
20697;SDS011;10508;50.956;4.640;2022-07-29T12:33:21;2.95;;;1.50;;
20697;SDS011;10508;50.956;4.640;2022-07-29T12:35:59;4.28;;;1.30;;
20697;SDS011;10508;50.956;4.640;2022-07-29T12:38:26;1.70;;;1.30;;
20697;SDS011;10508;50.956;4.640;2022-07-29T12:40:53;1.90;;;1.05;;
20697;SDS011;10508;50.956;4.640;2022-07-29T12:43:20;1.92;;;1.30;;
20697;SDS011;10508;50.956;4.640;2022-07-29T12:45:51;3.70;;;1.30;;
20697;SDS011;10508;50.956;4.640;2022-07-29T12:48:34;3.45;;;1.23;;
20697;SDS011;10508;50.956;4.640;2022-07-29T12:51:04;3.95;;;1.40;;
20697;SDS011;10508;50.956;4.640;2022-07-29T12:53:32;1.75;;;1.30;;
20697;SDS011;10508;50.956;4.640;2022-07-29T12:55:59;3.08;;;1.40;;
20697;SDS011;10508;50.956;4.640;2022-07-29T12:58:31;2.10;;;1.50;;
20697;SDS011;10508;50.956;4.640;2022-07-29T13:01:04;3.97;;;1.27;;
20697;SDS011;10508;50.956;4.640;2022-07-29T13:03:53;2.58;;;1.70;;
20697;SDS011;10508;50.956;4.640;2022-07-29T13:06:36;3.97;;;1.50;;
20697;SDS011;10508;50.956;4.640;2022-07-29T13:09:10;3.35;;;1.60;;
20697;SDS011;10508;50.956;4.640;2022-07-29T13:14:39;4.85;;;1.40;;
20697;SDS011;10508;50.956;4.640;2022-07-29T13:17:07;4.13;;;1.42;;
20697;SDS011;10508;50.956;4.640;2022-07-29T13:22:05;2.63;;;1.70;;
20697;SDS011;10508;50.956;4.640;2022-07-29T13:24:31;3.50;;;1.77;;
20697;SDS011;10508;50.956;4.640;2022-07-29T13:26:57;4.82;;;1.75;;
20697;SDS011;10508;50.956;4.640;2022-07-29T13:29:22;3.08;;;1.30;;
20697;SDS011;10508;50.956;4.640;2022-07-29T13:31:48;3.22;;;1.60;;
20697;SDS011;10508;50.956;4.640;2022-07-29T13:34:14;3.38;;;1.60;;
20697;SDS011;10508;50.956;4.640;2022-07-29T13:36:40;1.65;;;1.48;;
20697;SDS011;10508;50.956;4.640;2022-07-29T13:39:05;4.43;;;1.88;;
20697;SDS011;10508;50.956;4.640;2022-07-29T13:41:31;2.03;;;1.48;;
20697;SDS011;10508;50.956;4.640;2022-07-29T13:43:56;3.10;;;2.10;;
20697;SDS011;10508;50.956;4.640;2022-07-29T13:46:22;3.88;;;1.80;;
20697;SDS011;10508;50.956;4.640;2022-07-29T13:48:47;2.45;;;1.50;;
20697;SDS011;10508;50.956;4.640;2022-07-29T13:51:13;4.18;;;2.00;;
20697;SDS011;10508;50.956;4.640;2022-07-29T13:53:39;5.28;;;1.83;;
20697;SDS011;10508;50.956;4.640;2022-07-29T13:56:04;2.50;;;1.60;;
20697;SDS011;10508;50.956;4.640;2022-07-29T13:58:31;4.43;;;1.85;;
20697;SDS011;10508;50.956;4.640;2022-07-29T14:00:58;7.93;;;2.40;;
20697;SDS011;10508;50.956;4.640;2022-07-29T14:03:24;3.22;;;1.73;;
20697;SDS011;10508;50.956;4.640;2022-07-29T14:05:50;3.80;;;1.85;;
20697;SDS011;10508;50.956;4.640;2022-07-29T14:08:16;3.10;;;1.90;;
20697;SDS011;10508;50.956;4.640;2022-07-29T14:10:42;5.18;;;1.95;;
20697;SDS011;10508;50.956;4.640;2022-07-29T14:13:07;3.33;;;2.35;;
20697;SDS011;10508;50.956;4.640;2022-07-29T14:15:33;5.20;;;2.97;;
20697;SDS011;10508;50.956;4.640;2022-07-29T14:17:59;4.60;;;2.65;;
20697;SDS011;10508;50.956;4.640;2022-07-29T14:20:24;9.05;;;2.00;;
20697;SDS011;10508;50.956;4.640;2022-07-29T14:22:50;5.88;;;2.85;;
20697;SDS011;10508;50.956;4.640;2022-07-29T14:25:15;3.00;;;2.20;;
20697;SDS011;10508;50.956;4.640;2022-07-29T14:27:42;8.48;;;2.40;;
20697;SDS011;10508;50.956;4.640;2022-07-29T14:30:08;6.30;;;2.85;;
20697;SDS011;10508;50.956;4.640;2022-07-29T14:32:34;4.07;;;3.00;;
20697;SDS011;10508;50.956;4.640;2022-07-29T14:35:00;5.93;;;2.13;;
20697;SDS011;10508;50.956;4.640;2022-07-29T14:37:26;4.32;;;2.20;;
20697;SDS011;10508;50.956;4.640;2022-07-29T14:39:51;3.95;;;1.40;;
20697;SDS011;10508;50.956;4.640;2022-07-29T14:42:18;3.78;;;1.92;;
20697;SDS011;10508;50.956;4.640;2022-07-29T14:44:44;4.22;;;1.95;;
20697;SDS011;10508;50.956;4.640;2022-07-29T14:47:10;2.80;;;1.50;;
20697;SDS011;10508;50.956;4.640;2022-07-29T14:49:36;2.70;;;1.60;;
20697;SDS011;10508;50.956;4.640;2022-07-29T14:52:01;5.18;;;2.45;;
20697;SDS011;10508;50.956;4.640;2022-07-29T14:54:27;3.75;;;2.05;;
20697;SDS011;10508;50.956;4.640;2022-07-29T14:56:53;6.28;;;2.08;;
20697;SDS011;10508;50.956;4.640;2022-07-29T14:59:21;5.20;;;1.90;;
20697;SDS011;10508;50.956;4.640;2022-07-29T15:01:47;1.95;;;1.70;;
20697;SDS011;10508;50.956;4.640;2022-07-29T15:04:12;6.28;;;1.90;;
20697;SDS011;10508;50.956;4.640;2022-07-29T15:06:38;2.40;;;1.90;;
20697;SDS011;10508;50.956;4.640;2022-07-29T15:09:04;3.15;;;2.05;;
20697;SDS011;10508;50.956;4.640;2022-07-29T15:11:30;2.92;;;2.13;;
20697;SDS011;10508;50.956;4.640;2022-07-29T15:13:55;4.65;;;2.10;;
20697;SDS011;10508;50.956;4.640;2022-07-29T15:16:21;6.03;;;2.00;;
20697;SDS011;10508;50.956;4.640;2022-07-29T15:18:46;3.70;;;1.92;;
20697;SDS011;10508;50.956;4.640;2022-07-29T15:21:12;6.30;;;2.30;;
20697;SDS011;10508;50.956;4.640;2022-07-29T15:23:38;2.20;;;1.80;;
20697;SDS011;10508;50.956;4.640;2022-07-29T15:26:04;2.85;;;1.88;;
20697;SDS011;10508;50.956;4.640;2022-07-29T15:28:29;1.60;;;1.30;;
20697;SDS011;10508;50.956;4.640;2022-07-29T15:30:55;2.72;;;1.40;;
20697;SDS011;10508;50.956;4.640;2022-07-29T15:33:21;4.07;;;1.27;;
20697;SDS011;10508;50.956;4.640;2022-07-29T15:35:46;3.28;;;1.45;;
20697;SDS011;10508;50.956;4.640;2022-07-29T15:38:12;3.58;;;1.55;;
20697;SDS011;10508;50.956;4.640;2022-07-29T15:40:38;3.67;;;1.40;;
20697;SDS011;10508;50.956;4.640;2022-07-29T15:43:06;6.47;;;1.55;;
20697;SDS011;10508;50.956;4.640;2022-07-29T15:45:34;2.10;;;1.27;;
20697;SDS011;10508;50.956;4.640;2022-07-29T15:48:05;5.32;;;1.88;;
20697;SDS011;10508;50.956;4.640;2022-07-29T15:50:31;2.85;;;1.35;;
20697;SDS011;10508;50.956;4.640;2022-07-29T15:52:57;2.65;;;1.55;;
20697;SDS011;10508;50.956;4.640;2022-07-29T15:55:23;3.70;;;1.20;;
20697;SDS011;10508;50.956;4.640;2022-07-29T15:57:49;3.90;;;1.30;;
20697;SDS011;10508;50.956;4.640;2022-07-29T16:00:15;2.42;;;1.40;;
20697;SDS011;10508;50.956;4.640;2022-07-29T16:02:41;3.25;;;1.67;;